Munising, Michigan
Current Conditions -  °F | °C
As of 8:45 AM on Sunday 23 Nov 2014 (Local Time) from KSAW Reporting Station
Moderate Fog Moderate Fog  
Wind Chill: -1°   Ceiling: 200
Heat Index:   Visibility: 0.12mi
Dew Point:   Wind: 15mph
Humidity: 100%   Direction: 180°S
Pressure: 29.56"   Gusts: NA
Location:  46.41°N, 86.65°W
Report Text: KSAW 231345Z 18013KT 1/8SM FG OVC002 04/04 A2956
Loading
Personal Weather Stations






























Interactive Weather Map New forecast layout! Learn more

10-Day Weather Forecast

Advertisements
Track Severe Weather on mobile